Time;durP1;ratioP1;P1;durP2;ratioP2;P2;SDS_P1;SDS_P2;PMS_P1;PMS_P2;Temp;Humidity;BMP_temperature;BMP_pressure;BME280_temperature;BME280_humidity;BME280_pressure;Samples;Min_cycle;Max_cycle;Signal;HPM_P1;HPM_P2
2022/01/07 00:02:07;;;;;;;50.97;19.50;;;;;;;-0.71;99.63;98875.44;5007355;28;20022;-67
2022/01/07 00:04:35;;;;;;;49.15;15.80;;;;;;;-0.73;99.84;98879.66;5012344;28;20321;-67
2022/01/07 00:07:02;;;;;;;45.60;13.15;;;;;;;-0.69;100.00;98873.75;5012768;28;20045;-67
2022/01/07 00:09:28;;;;;;;43.25;16.08;;;;;;;-0.65;99.79;98875.63;5007699;28;20061;-67
2022/01/07 00:11:53;;;;;;;40.97;15.93;;;;;;;-0.73;99.47;98871.91;5016938;28;20017;-67
2022/01/07 00:14:19;;;;;;;33.08;15.77;;;;;;;-0.72;99.95;98878.84;5023757;28;20191;-67
2022/01/07 00:16:44;;;;;;;55.45;17.95;;;;;;;-0.68;100.00;98872.94;5023596;28;20030;-67
2022/01/07 00:19:09;;;;;;;64.97;24.35;;;;;;;-0.76;100.00;98866.66;5010919;28;20270;-67
2022/01/07 00:21:35;;;;;;;58.95;24.08;;;;;;;-0.75;100.00;98868.44;5015844;28;20084;-67
2022/01/07 00:24:00;;;;;;;69.68;26.15;;;;;;;-0.73;100.00;98861.59;5014349;28;20090;-67
2022/01/07 00:26:26;;;;;;;124.80;45.33;;;;;;;-0.71;100.00;98862.50;5007004;28;20050;-67
2022/01/07 00:28:52;;;;;;;79.28;28.70;;;;;;;-0.69;100.00;98853.06;5018951;28;20026;-67
2022/01/07 00:31:17;;;;;;;88.05;28.92;;;;;;;-0.70;100.00;98853.91;5018455;28;20032;-67
2022/01/07 00:33:43;;;;;;;49.03;23.88;;;;;;;-0.68;100.00;98861.72;5006777;28;20089;-67
2022/01/07 00:36:10;;;;;;;68.82;21.42;;;;;;;-0.62;100.00;98855.03;5014400;28;20030;-67
2022/01/07 00:38:36;;;;;;;51.88;18.88;;;;;;;-0.50;100.00;98849.31;5007568;28;20058;-67
2022/01/07 00:41:03;;;;;;;62.45;22.65;;;;;;;-0.47;100.00;98850.25;5006790;28;20265;-67
2022/01/07 00:43:29;;;;;;;70.88;24.00;;;;;;;-0.52;99.87;98846.69;5019936;28;20067;-67
2022/01/07 00:45:54;;;;;;;77.10;25.42;;;;;;;-0.55;99.71;98851.75;5012387;28;20325;-67
2022/01/07 00:48:20;;;;;;;66.50;23.30;;;;;;;-0.48;99.33;98853.66;5012266;28;20038;-67
2022/01/07 00:50:45;;;;;;;77.80;25.00;;;;;;;-0.48;99.57;98848.50;5019889;28;20065;-67
2022/01/07 00:53:11;;;;;;;62.92;22.17;;;;;;;-0.47;99.32;98845.06;5015899;28;20060;-67
2022/01/07 00:55:36;;;;;;;55.53;21.25;;;;;;;-0.36;99.42;98847.94;5012514;28;20242;-67
2022/01/07 00:58:02;;;;;;;64.68;24.95;;;;;;;-0.35;98.51;98841.94;5012585;28;20028;-67
2022/01/07 01:00:28;;;;;;;71.07;22.45;;;;;;;-0.41;98.68;98842.66;5019263;28;20026;-67
2022/01/07 01:02:55;;;;;;;53.72;22.60;;;;;;;-0.56;98.63;98829.34;5011595;28;20026;-67
2022/01/07 01:05:23;;;;;;;73.18;24.98;;;;;;;-0.65;99.59;98834.25;5014206;28;20025;-67
2022/01/07 01:07:49;;;;;;;99.85;38.05;;;;;;;-0.63;100.00;98827.41;5015495;28;20217;-67
2022/01/07 01:10:17;;;;;;;73.97;27.73;;;;;;;-0.57;100.00;98837.91;5010520;28;20022;-67
2022/01/07 01:12:44;;;;;;;64.22;25.50;;;;;;;-0.54;99.71;98829.38;5018246;28;20195;-67
2022/01/07 01:15:13;;;;;;;87.07;26.05;;;;;;;-0.53;99.57;98821.63;5010144;28;20037;-67
2022/01/07 01:17:39;;;;;;;67.38;22.70;;;;;;;-0.58;99.16;98828.41;5018342;28;20018;-67
2022/01/07 01:20:08;;;;;;;68.60;22.50;;;;;;;-0.57;99.32;98824.97;5013074;28;20085;-67
2022/01/07 01:22:34;;;;;;;77.57;24.60;;;;;;;-0.54;99.22;98825.06;5018740;28;20381;-67
2022/01/07 01:24:59;;;;;;;46.80;18.00;;;;;;;-0.62;99.15;98828.28;5014833;28;20080;-67
2022/01/07 01:27:25;;;;;;;58.25;21.45;;;;;;;-0.59;98.96;98826.66;5015717;28;20098;-67
2022/01/07 01:29:50;;;;;;;56.38;19.40;;;;;;;-0.68;99.14;98828.13;5009931;28;20026;-67
2022/01/07 01:32:16;;;;;;;65.15;22.50;;;;;;;-0.68;99.29;98836.75;5009864;28;20022;-67
2022/01/07 01:34:42;;;;;;;75.20;26.33;;;;;;;-0.74;99.71;98834.00;5019489;28;20039;-67
2022/01/07 01:37:08;;;;;;;51.30;21.48;;;;;;;-0.83;99.59;98827.69;5014254;28;20021;-67
2022/01/07 01:39:33;;;;;;;36.40;15.75;;;;;;;-0.71;100.00;98839.25;5017947;28;20360;-67
2022/01/07 01:41:59;;;;;;;31.88;14.73;;;;;;;-0.67;100.00;98827.28;5010839;28;20018;-67
2022/01/07 01:44:24;;;;;;;30.77;12.68;;;;;;;-0.73;100.00;98825.41;5014272;28;20198;-67
2022/01/07 01:46:50;;;;;;;32.25;12.07;;;;;;;-0.77;100.00;98813.25;5020531;28;20332;-67
2022/01/07 01:49:15;;;;;;;27.45;12.32;;;;;;;-0.74;100.00;98808.16;5021391;28;20317;-67
2022/01/07 01:51:40;;;;;;;34.38;12.80;;;;;;;-0.63;100.00;98806.72;5017534;28;20022;-67
2022/01/07 01:54:06;;;;;;;45.20;14.90;;;;;;;-0.62;100.00;98803.31;5018406;28;20237;-67
2022/01/07 01:56:32;;;;;;;39.60;15.32;;;;;;;-0.68;99.85;98802.28;5010665;28;20097;-67
2022/01/07 01:58:58;;;;;;;41.00;16.02;;;;;;;-0.63;99.47;98796.38;5010502;28;20022;-67
2022/01/07 02:01:23;;;;;;;32.40;14.45;;;;;;;-0.69;99.49;98801.38;5010904;28;20034;-67
2022/01/07 02:03:49;;;;;;;29.70;14.95;;;;;;;-0.67;98.96;98789.41;5019882;28;20018;-67
2022/01/07 02:06:15;;;;;;;40.47;14.63;;;;;;;-0.68;98.90;98795.41;5015509;28;20096;-67
2022/01/07 02:08:41;;;;;;;55.05;19.05;;;;;;;-0.71;98.94;98797.91;5014871;28;20018;-67
2022/01/07 02:11:07;;;;;;;49.00;20.73;;;;;;;-0.81;99.37;98795.91;5019562;28;20380;-67
2022/01/07 02:13:32;;;;;;;41.53;16.20;;;;;;;-0.93;99.50;98792.97;5018788;28;20340;-67
2022/01/07 02:15:58;;;;;;;45.50;17.15;;;;;;;-0.91;100.00;98788.75;5013079;28;20022;-67
2022/01/07 02:18:24;;;;;;;36.83;16.98;;;;;;;-0.86;100.00;98787.16;5021781;28;20347;-67
2022/01/07 02:20:49;;;;;;;51.63;19.45;;;;;;;-0.74;99.96;98796.94;5015449;28;20021;-67
2022/01/07 02:23:17;;;;;;;36.80;15.40;;;;;;;-0.68;99.73;98787.66;5014774;28;20025;-67
2022/01/07 02:25:44;;;;;;;34.50;14.15;;;;;;;-0.51;100.00;98786.38;5021591;28;20038;-67
2022/01/07 02:28:10;;;;;;;30.50;13.40;;;;;;;-0.40;100.00;98791.84;5012937;28;20111;-67
2022/01/07 02:30:35;;;;;;;51.85;18.92;;;;;;;-0.41;99.03;98788.38;5021427;28;20025;-67
2022/01/07 02:33:01;;;;;;;35.33;11.82;;;;;;;-0.28;99.73;98782.66;5012329;28;20041;-67
2022/01/07 02:35:29;;;;;;;20.30;8.63;;;;;;;-0.19;100.00;98785.47;5020847;28;20022;-67
2022/01/07 02:37:55;;;;;;;13.95;6.38;;;;;;;0.00;100.00;98787.69;5014828;28;20025;-67
2022/01/07 02:40:21;;;;;;;15.05;6.60;;;;;;;0.08;100.00;98784.41;5019408;28;20018;-67
2022/01/07 02:42:46;;;;;;;18.45;6.57;;;;;;;0.30;100.00;98786.66;5016091;28;20337;-67
2022/01/07 02:45:13;;;;;;;14.18;5.68;;;;;;;0.42;100.00;98767.13;5015087;28;20080;-67
2022/01/07 02:47:52;;;;;;;16.13;6.07;;;;;;;0.42;100.00;98766.22;5022176;28;20024;-67
2022/01/07 02:50:21;;;;;;;16.27;5.53;;;;;;;0.48;100.00;98769.84;5022367;28;20249;-67
2022/01/07 02:52:47;;;;;;;16.48;4.85;;;;;;;0.49;100.00;98763.81;5013096;28;20021;-67
2022/01/07 02:55:13;;;;;;;18.48;6.22;;;;;;;0.65;100.00;98760.72;5016574;28;20068;-67
2022/01/07 02:57:38;;;;;;;11.45;5.32;;;;;;;0.62;100.00;98764.94;5022228;28;20054;-67
2022/01/07 03:00:07;;;;;;;12.82;5.20;;;;;;;0.58;100.00;98757.94;5016718;28;20199;-67
2022/01/07 03:02:32;;;;;;;8.18;4.20;;;;;;;0.61;99.98;98748.53;5008223;28;20034;-67
2022/01/07 03:04:58;;;;;;;9.82;4.25;;;;;;;0.67;100.00;98748.69;5011863;28;20097;-67
2022/01/07 03:07:23;;;;;;;15.35;4.53;;;;;;;0.72;99.64;98756.50;5021537;28;20022;-67
2022/01/07 03:09:49;;;;;;;18.52;5.22;;;;;;;0.72;99.75;98756.50;5014000;28;20037;-67
2022/01/07 03:12:14;;;;;;;18.73;5.97;;;;;;;0.75;99.80;98756.56;5008036;28;20053;-67
2022/01/07 03:14:40;;;;;;;13.90;4.05;;;;;;;0.80;99.76;98749.78;5020073;28;20029;-67
2022/01/07 03:17:06;;;;;;;16.15;4.68;;;;;;;0.83;99.63;98750.75;5017998;28;20089;-67
2022/01/07 03:19:31;;;;;;;15.70;4.13;;;;;;;0.93;99.66;98752.66;5019812;28;20060;-67
2022/01/07 03:21:56;;;;;;;22.35;4.93;;;;;;;0.96;99.03;98751.84;5014359;28;20021;-67
2022/01/07 03:24:22;;;;;;;20.48;5.03;;;;;;;1.01;98.83;98755.41;5024110;28;20053;-67
2022/01/07 03:26:47;;;;;;;15.32;4.40;;;;;;;1.01;98.84;98750.22;5024448;28;20045;-67
2022/01/07 03:29:13;;;;;;;9.20;3.65;;;;;;;1.09;98.74;98748.66;5014085;28;20253;-67
2022/01/07 03:31:38;;;;;;;10.98;4.20;;;;;;;1.08;98.81;98741.72;5010309;28;20017;-67
2022/01/07 03:34:03;;;;;;;14.27;4.03;;;;;;;1.12;98.66;98738.34;5014081;28;20022;-67
2022/01/07 03:36:29;;;;;;;13.40;4.70;;;;;;;1.26;98.86;98742.06;5014092;28;20317;-67
2022/01/07 03:38:56;;;;;;;16.33;3.95;;;;;;;1.26;98.26;98744.66;5016258;28;20025;-67
2022/01/07 03:41:22;;;;;;;21.60;4.30;;;;;;;1.27;98.05;98738.63;5007396;28;20041;-67
2022/01/07 03:43:47;;;;;;;6.93;3.30;;;;;;;1.36;98.32;98733.63;5017816;28;20253;-67
2022/01/07 03:46:13;;;;;;;9.02;3.83;;;;;;;1.51;98.37;98733.88;5007451;28;20026;-67
2022/01/07 03:48:38;;;;;;;13.43;4.80;;;;;;;1.57;97.75;98726.22;5019978;28;20026;-67
2022/01/07 03:51:04;;;;;;;9.90;4.25;;;;;;;1.46;97.47;98735.53;5011488;28;20021;-67
2022/01/07 03:53:29;;;;;;;17.42;4.30;;;;;;;1.53;97.59;98722.72;5020925;28;20017;-67
2022/01/07 03:55:54;;;;;;;11.35;3.63;;;;;;;1.52;97.11;98725.28;5014393;28;20084;-67
2022/01/07 03:58:20;;;;;;;15.38;3.90;;;;;;;1.47;97.36;98726.91;5007166;28;20029;-67
2022/01/07 04:00:46;;;;;;;17.27;4.72;;;;;;;1.76;97.33;98725.66;5019751;28;20018;-67
2022/01/07 04:03:16;;;;;;;19.67;3.25;;;;;;;1.68;96.99;98727.28;5010628;28;20018;-67
2022/01/07 04:05:42;;;;;;;9.75;3.17;;;;;;;1.60;96.66;98728.84;5017918;28;20165;-67
2022/01/07 04:08:08;;;;;;;7.75;3.13;;;;;;;1.76;97.12;98736.06;5015129;28;20333;-67
2022/01/07 04:10:34;;;;;;;6.85;3.97;;;;;;;1.70;96.55;98730.75;5016312;28;20021;-67
2022/01/07 04:13:00;;;;;;;8.00;3.65;;;;;;;1.64;96.45;98725.47;5015284;28;20064;-67
2022/01/07 04:15:26;;;;;;;10.77;3.40;;;;;;;1.75;96.64;98718.75;5013845;28;20029;-67
2022/01/07 04:17:53;;;;;;;6.57;3.50;;;;;;;1.88;96.68;98718.09;5011447;28;20045;-67
2022/01/07 04:20:22;;;;;;;16.23;4.18;;;;;;;1.81;96.32;98721.44;5007309;28;20253;-67
2022/01/07 04:22:48;;;;;;;12.73;4.25;;;;;;;1.83;95.86;98717.13;5010586;28;20018;-66
2022/01/07 04:25:18;;;;;;;9.05;4.22;;;;;;;1.85;95.56;98705.06;5015685;28;20045;-66
2022/01/07 04:27:49;;;;;;;12.45;3.63;;;;;;;1.80;95.49;98706.69;5010002;28;20046;-66
2022/01/07 04:30:16;;;;;;;26.20;4.00;;;;;;;1.82;95.12;98699.81;5020778;28;20030;-66
2022/01/07 04:32:42;;;;;;;8.55;4.10;;;;;;;1.86;95.58;98696.41;5013803;28;20438;-66
2022/01/07 04:35:09;;;;;;;10.00;3.35;;;;;;;1.87;95.46;98693.00;5019606;28;20037;-67
2022/01/07 04:37:35;;;;;;;19.80;3.83;;;;;;;2.06;96.03;98697.63;5016526;28;20022;-67
2022/01/07 04:40:03;;;;;;;20.23;3.47;;;;;;;1.90;95.07;98698.25;5013509;28;20030;-67
2022/01/07 04:42:28;;;;;;;13.00;3.50;;;;;;;1.83;95.29;98696.38;5014015;28;20393;-67
2022/01/07 04:44:54;;;;;;;6.93;3.20;;;;;;;1.80;95.14;98696.31;5015292;28;20022;-67
2022/01/07 04:47:19;;;;;;;11.40;4.25;;;;;;;1.83;96.01;98691.19;5020837;28;20026;-67
2022/01/07 04:49:44;;;;;;;10.73;3.42;;;;;;;1.69;95.65;98700.47;5007815;28;20344;-67
2022/01/07 04:52:10;;;;;;;8.32;4.15;;;;;;;1.75;95.42;98698.00;5012080;28;20084;-67
2022/01/07 04:54:35;;;;;;;12.88;4.47;;;;;;;1.79;95.75;98699.78;5018822;28;20021;-67
2022/01/07 04:57:01;;;;;;;12.27;4.45;;;;;;;1.78;95.38;98698.03;5012193;28;20018;-67
2022/01/07 04:59:26;;;;;;;14.45;4.07;;;;;;;1.79;94.99;98695.47;5013572;28;20060;-67
2022/01/07 05:01:52;;;;;;;13.90;3.80;;;;;;;1.83;94.91;98686.00;5017356;28;20019;-67
2022/01/07 05:04:17;;;;;;;10.50;3.05;;;;;;;1.78;95.04;98682.47;5018180;28;20318;-67
2022/01/07 05:09:08;;;;;;;12.55;3.20;;;;;;;1.82;95.06;98668.69;5014297;28;20076;-67
2022/01/07 05:11:34;;;;;;;13.38;4.07;;;;;;;1.89;95.49;98670.53;5011026;28;20044;-67
2022/01/07 05:13:59;;;;;;;5.70;3.35;;;;;;;1.88;95.27;98673.97;5010212;28;20023;-67
2022/01/07 05:16:26;;;;;;;10.27;3.13;;;;;;;1.93;94.48;98667.16;5007546;28;20082;-67
2022/01/07 05:18:52;;;;;;;11.25;3.38;;;;;;;1.87;95.40;98667.06;5020627;28;20028;-67
2022/01/07 05:21:17;;;;;;;12.10;3.78;;;;;;;2.05;96.28;98667.31;5008196;28;20058;-67
2022/01/07 05:23:42;;;;;;;15.55;3.55;;;;;;;1.92;95.08;98670.56;5014130;28;20026;-67
2022/01/07 05:26:08;;;;;;;17.02;3.97;;;;;;;2.05;95.62;98664.69;5014589;28;20097;-67
2022/01/07 05:28:34;;;;;;;14.82;3.40;;;;;;;2.00;94.64;98669.81;5004704;28;20022;-67
2022/01/07 05:31:00;;;;;;;8.38;3.35;;;;;;;2.03;95.29;98663.81;5006642;28;20210;-67
2022/01/07 05:33:25;;;;;;;9.10;3.47;;;;;;;2.01;94.91;98676.78;5006634;28;20061;-67
2022/01/07 05:35:50;;;;;;;17.75;4.15;;;;;;;2.01;94.91;98673.31;5020962;28;20022;-67
2022/01/07 05:38:16;;;;;;;10.05;4.10;;;;;;;1.97;94.78;98668.94;5016861;28;20030;-67
2022/01/07 05:40:41;;;;;;;10.43;4.85;;;;;;;2.05;94.48;98667.31;5007416;28;20029;-67
2022/01/07 05:43:07;;;;;;;16.88;4.05;;;;;;;2.08;94.94;98673.41;5007433;28;20037;-67
2022/01/07 05:45:32;;;;;;;16.88;3.90;;;;;;;2.02;94.84;98667.25;5007468;28;20049;-67
2022/01/07 05:47:57;;;;;;;11.88;3.67;;;;;;;2.07;94.91;98673.41;5007375;28;20048;-67
2022/01/07 05:50:23;;;;;;;9.75;4.60;;;;;;;2.17;95.02;98662.28;5007281;28;20022;-67
2022/01/07 05:52:48;;;;;;;8.00;3.05;;;;;;;2.12;94.67;98653.59;5007266;28;20092;-67
2022/01/07 05:55:14;;;;;;;15.75;4.20;;;;;;;2.19;95.30;98660.59;5007168;28;20263;-67
2022/01/07 05:57:39;;;;;;;13.02;3.33;;;;;;;2.18;94.54;98658.81;5007167;28;20042;-67
2022/01/07 06:00:08;;;;;;;11.20;4.00;;;;;;;2.10;94.35;98665.66;5007058;28;20326;-67
2022/01/07 06:02:33;;;;;;;18.05;4.07;;;;;;;2.17;94.95;98651.91;5007010;28;20068;-67
2022/01/07 06:04:59;;;;;;;9.65;3.53;;;;;;;2.11;93.99;98651.81;5007037;28;20033;-67
2022/01/07 06:07:24;;;;;;;7.63;3.67;;;;;;;2.16;94.70;98644.97;5007032;28;20033;-67
2022/01/07 06:09:50;;;;;;;14.82;3.63;;;;;;;2.11;94.57;98649.22;5006964;28;20034;-67
2022/01/07 06:12:15;;;;;;;5.75;2.47;;;;;;;2.17;93.92;98651.91;5007189;28;20234;-67
2022/01/07 06:14:40;;;;;;;19.65;4.22;;;;;;;2.39;94.85;98643.53;5006866;28;20325;-67
2022/01/07 06:17:08;;;;;;;9.38;3.20;;;;;;;2.42;93.64;98643.59;5006784;28;20034;-67
2022/01/07 06:19:34;;;;;;;10.32;3.83;;;;;;;2.51;92.92;98641.09;5006709;28;20038;-67
2022/01/07 06:22:00;;;;;;;8.68;4.03;;;;;;;2.44;92.71;98635.81;5006912;28;20274;-67
2022/01/07 06:24:25;;;;;;;17.30;3.72;;;;;;;2.22;93.09;98639.88;5006632;28;20049;-67
2022/01/07 06:26:50;;;;;;;12.70;3.38;;;;;;;2.19;93.15;98635.47;5006500;28;20353;-67
2022/01/07 06:29:16;;;;;;;12.43;4.20;;;;;;;2.20;92.86;98636.38;5006595;28;20053;-67
2022/01/07 06:31:41;;;;;;;10.55;4.57;;;;;;;2.39;93.73;98638.34;5006522;28;20030;-67
2022/01/07 06:34:07;;;;;;;8.27;3.50;;;;;;;2.22;92.89;98640.72;5005605;28;20026;-67
2022/01/07 06:36:32;;;;;;;7.25;3.55;;;;;;;2.21;92.63;98632.91;5005642;28;20060;-67
2022/01/07 06:38:58;;;;;;;9.07;3.95;;;;;;;2.28;92.66;98641.66;5006640;28;20213;-67
2022/01/07 06:41:24;;;;;;;6.40;2.78;;;;;;;2.26;93.71;98646.84;5005747;28;20086;-67
2022/01/07 06:43:49;;;;;;;10.88;3.88;;;;;;;2.21;93.18;98653.69;5006299;28;20330;-67
2022/01/07 06:46:15;;;;;;;8.27;4.03;;;;;;;2.23;93.57;98642.50;5006281;28;20190;-67
2022/01/07 06:48:44;;;;;;;13.93;4.72;;;;;;;2.38;93.93;98647.00;5006492;28;20195;-67
2022/01/07 06:51:10;;;;;;;9.82;4.35;;;;;;;2.43;93.98;98640.13;5006172;28;20026;-67
2022/01/07 06:53:35;;;;;;;9.75;4.07;;;;;;;2.28;92.72;98634.75;5006163;28;20073;-67
2022/01/07 06:56:03;;;;;;;14.07;4.55;;;;;;;2.50;93.96;98631.53;5006137;28;20290;-67
2022/01/07 06:58:28;;;;;;;17.50;4.65;;;;;;;2.41;92.33;98640.97;5006084;28;20317;-67
2022/01/07 07:00:54;;;;;;;8.15;3.58;;;;;;;2.48;92.70;98635.88;5005939;28;20073;-67
2022/01/07 07:03:20;;;;;;;10.20;4.20;;;;;;;2.27;91.82;98630.41;5005977;28;20089;-67
2022/01/07 07:05:45;;;;;;;11.07;3.83;;;;;;;2.33;91.95;98627.00;5005950;28;20026;-67
2022/01/07 07:08:11;;;;;;;8.90;4.68;;;;;;;2.26;92.35;98626.06;5005829;28;20076;-67
2022/01/07 07:10:36;;;;;;;9.43;3.38;;;;;;;2.37;92.58;98629.66;5005835;28;20029;-67
2022/01/07 07:13:01;;;;;;;7.15;3.75;;;;;;;2.40;92.50;98613.25;5005747;28;20026;-67
2022/01/07 07:15:27;;;;;;;13.45;4.88;;;;;;;2.34;92.06;98624.41;5005733;28;20199;-67
2022/01/07 07:17:53;;;;;;;17.40;4.35;;;;;;;2.35;92.90;98620.13;5005670;28;20249;-67
2022/01/07 07:20:18;;;;;;;14.07;4.65;;;;;;;2.48;91.89;98628.09;5005565;28;20030;-67
2022/01/07 07:22:44;;;;;;;5.47;3.25;;;;;;;2.34;91.54;98616.63;5005593;28;20068;-67
2022/01/07 07:25:10;;;;;;;16.05;4.20;;;;;;;2.39;92.52;98617.56;5005322;28;20054;-67
2022/01/07 07:27:36;;;;;;;18.70;4.93;;;;;;;2.56;92.22;98610.00;5005525;28;20105;-67
2022/01/07 07:30:07;;;;;;;12.15;4.38;;;;;;;2.43;91.67;98603.75;5005365;28;20026;-67
2022/01/07 07:32:34;;;;;;;15.73;4.97;;;;;;;2.51;92.37;98607.34;5005729;28;20229;-67
2022/01/07 07:36:26;;;;;;;17.15;4.70;;;;;;;2.92;92.90;98599.97;5005565;28;20267;-67
2022/01/07 07:37:49;;;;;;;6.18;2.88;;;;;;;2.55;91.15;98619.50;5005256;28;20038;-67
2022/01/07 07:40:15;;;;;;;10.43;4.03;;;;;;;2.46;91.38;98609.00;5005165;28;20030;-67
2022/01/07 07:42:41;;;;;;;7.78;3.60;;;;;;;2.55;91.93;98611.72;5005198;28;20073;-67
2022/01/07 07:45:07;;;;;;;12.07;4.20;;;;;;;2.52;91.00;98622.06;5018407;28;20102;-67
2022/01/07 07:47:34;;;;;;;9.30;3.58;;;;;;;2.51;91.44;98616.84;5023106;28;20366;-67
2022/01/07 07:50:00;;;;;;;9.43;4.28;;;;;;;2.56;91.86;98618.63;5023807;28;20033;-67
2022/01/07 07:52:25;;;;;;;17.48;4.05;;;;;;;2.44;91.23;98610.72;5023314;28;20089;-67
2022/01/07 07:54:51;;;;;;;10.32;3.40;;;;;;;2.46;91.50;98611.59;5023636;28;20049;-67
2022/01/07 07:57:16;;;;;;;8.85;4.18;;;;;;;2.49;92.19;98608.16;5023705;28;20025;-67
2022/01/07 07:59:42;;;;;;;15.73;4.47;;;;;;;2.58;92.01;98606.56;5023267;28;20129;-67
2022/01/07 08:02:09;;;;;;;14.60;4.50;;;;;;;2.49;91.90;98624.63;5023560;28;20072;-67
2022/01/07 08:04:39;;;;;;;14.90;4.30;;;;;;;2.46;91.95;98624.56;5020938;28;20030;-67
2022/01/07 08:07:05;;;;;;;15.40;3.78;;;;;;;2.48;92.85;98622.00;5015084;28;20021;-67
2022/01/07 08:09:38;;;;;;;11.75;4.07;;;;;;;2.44;92.20;98615.91;5023515;28;20038;-67
2022/01/07 08:12:17;;;;;;;12.02;3.40;;;;;;;2.50;92.22;98620.31;5023012;28;20025;-67
2022/01/07 08:17:26;;;;;;;7.63;3.10;;;;;;;2.53;93.57;98616.00;5014986;28;20060;-66
2022/01/07 08:19:52;;;;;;;8.52;3.83;;;;;;;2.35;94.69;98615.81;5014075;28;20026;-66
2022/01/07 08:22:18;;;;;;;16.02;3.92;;;;;;;2.36;95.24;98621.84;5003677;28;20273;-66
2022/01/07 08:24:43;;;;;;;13.25;4.07;;;;;;;2.36;96.07;98620.13;5004140;28;20033;-66
2022/01/07 08:27:09;;;;;;;17.30;5.15;;;;;;;2.34;95.96;98611.44;5004528;28;20026;-66
2022/01/07 08:29:38;;;;;;;14.98;4.63;;;;;;;2.31;96.37;98614.00;5004413;28;20093;-66
2022/01/07 08:34:57;;;;;;;10.77;3.97;;;;;;;2.37;97.09;98616.66;5008641;28;20061;-66
2022/01/07 08:37:28;;;;;;;7.15;3.53;;;;;;;2.30;96.20;98620.06;5024034;28;20068;-66
2022/01/07 08:39:55;;;;;;;7.93;3.80;;;;;;;2.32;96.31;98604.50;5024051;28;20029;-67
2022/01/07 08:42:23;;;;;;;13.18;5.13;;;;;;;2.32;97.53;98610.56;5024073;28;20089;-67
2022/01/07 08:44:51;;;;;;;10.35;3.42;;;;;;;2.43;97.73;98614.16;5024122;28;20030;-67
2022/01/07 08:47:17;;;;;;;12.07;4.65;;;;;;;2.45;97.83;98607.25;5023967;28;20021;-67
2022/01/07 08:49:42;;;;;;;8.50;3.58;;;;;;;2.42;97.33;98612.41;5023960;28;20029;-67
2022/01/07 08:52:08;;;;;;;8.25;4.45;;;;;;;2.18;97.87;98605.19;5023988;28;20022;-67
2022/01/07 08:54:33;;;;;;;18.92;4.82;;;;;;;2.22;98.13;98598.31;5023997;28;20026;-67
2022/01/07 08:56:59;;;;;;;16.55;4.53;;;;;;;2.33;98.36;98591.53;5024024;28;20089;-67
2022/01/07 08:59:24;;;;;;;9.20;4.40;;;;;;;2.23;98.26;98600.06;5024160;28;20028;-67
2022/01/07 09:01:49;;;;;;;14.48;3.47;;;;;;;2.31;97.96;98593.22;5024064;28;20022;-67
2022/01/07 09:04:15;;;;;;;20.42;4.47;;;;;;;2.33;98.52;98594.13;5024610;28;20049;-67
2022/01/07 09:06:40;;;;;;;11.88;5.10;;;;;;;2.34;98.24;98603.66;5027776;28;20026;-67
2022/01/07 09:09:06;;;;;;;10.70;3.83;;;;;;;2.36;98.06;98596.75;5026583;28;20071;-67
2022/01/07 09:11:31;;;;;;;5.05;2.80;;;;;;;2.39;98.19;98589.00;5027688;28;20088;-67
2022/01/07 09:13:58;;;;;;;12.57;4.50;;;;;;;2.33;97.90;98596.72;5027657;28;20108;-67
2022/01/07 09:16:25;;;;;;;8.38;4.35;;;;;;;2.33;97.87;98596.72;5027523;28;20081;-67
2022/01/07 09:18:50;;;;;;;12.88;4.22;;;;;;;2.36;97.95;98591.56;5027545;28;20081;-67
2022/01/07 09:21:17;;;;;;;7.65;3.92;;;;;;;2.37;97.82;98595.91;5027480;28;20060;-67
2022/01/07 09:23:42;;;;;;;23.48;4.88;;;;;;;2.40;98.05;98587.28;5026688;28;20040;-67
2022/01/07 09:26:12;;;;;;;8.63;4.55;;;;;;;2.44;97.66;98597.75;5026145;28;20053;-67
2022/01/07 09:28:38;;;;;;;17.23;4.40;;;;;;;2.43;97.41;98592.53;5027580;28;20022;-67
2022/01/07 09:31:03;;;;;;;12.50;4.07;;;;;;;2.47;97.31;98592.59;5027312;28;20259;-67
2022/01/07 09:33:28;;;;;;;10.07;3.78;;;;;;;2.43;97.64;98592.53;5027296;28;20028;-67
2022/01/07 09:35:54;;;;;;;13.90;4.65;;;;;;;2.51;97.66;98602.16;5027227;28;20068;-67
2022/01/07 09:38:21;;;;;;;9.35;4.40;;;;;;;2.53;97.34;98597.81;5027267;28;20355;-67
2022/01/07 09:40:47;;;;;;;7.95;4.00;;;;;;;2.60;97.58;98597.06;5027337;28;20308;-67
2022/01/07 09:43:14;;;;;;;14.13;5.03;;;;;;;2.63;97.13;98596.22;5027063;28;20198;-67
2022/01/07 09:45:39;;;;;;;13.05;4.50;;;;;;;2.44;97.32;98589.94;5027043;28;20369;-67
2022/01/07 09:48:05;;;;;;;10.63;4.82;;;;;;;2.62;97.67;98590.13;5027007;28;20024;-67
2022/01/07 09:50:33;;;;;;;8.43;4.43;;;;;;;2.60;97.59;98588.38;5027215;28;20024;-67
2022/01/07 09:53:13;;;;;;;12.38;4.55;;;;;;;2.61;98.04;98593.59;5026900;28;20053;-67
2022/01/07 09:55:40;;;;;;;9.20;4.32;;;;;;;2.57;98.10;98586.63;5026919;28;20052;-67
2022/01/07 09:58:06;;;;;;;11.13;4.63;;;;;;;2.60;97.75;98580.59;5026820;28;20129;-67
2022/01/07 10:00:38;;;;;;;11.57;4.72;;;;;;;2.58;97.51;98580.56;5026566;28;20222;-67
2022/01/07 10:03:10;;;;;;;9.30;4.05;;;;;;;2.57;98.33;98580.56;5025113;28;20025;-67
2022/01/07 10:05:49;;;;;;;9.20;5.05;;;;;;;2.50;98.11;98573.56;5025689;28;20214;-67
2022/01/07 10:08:16;;;;;;;9.90;4.72;;;;;;;2.68;98.49;98559.03;5026969;28;20032;-67
2022/01/07 10:10:42;;;;;;;11.05;5.07;;;;;;;2.63;97.94;98565.91;5035550;28;20021;-67
2022/01/07 10:13:07;;;;;;;17.35;4.30;;;;;;;2.60;98.29;98565.00;5045389;28;20040;-67
2022/01/07 10:15:35;;;;;;;11.65;4.38;;;;;;;2.59;97.71;98564.13;5043714;28;20080;-67
2022/01/07 10:18:08;;;;;;;12.18;4.28;;;;;;;2.68;97.68;98561.63;5013654;28;20026;-67
2022/01/07 10:20:42;;;;;;;8.13;5.03;;;;;;;2.65;96.98;98558.13;5011655;28;20018;-67
2022/01/07 10:23:15;;;;;;;7.47;3.88;;;;;;;2.70;96.67;98557.31;5019900;28;20032;-67
2022/01/07 10:25:44;;;;;;;10.65;5.15;;;;;;;2.74;96.76;98556.50;5016707;28;20085;-67
2022/01/07 10:28:13;;;;;;;11.75;5.00;;;;;;;2.83;97.00;98559.19;5013912;28;20365;-67
2022/01/07 10:30:44;;;;;;;11.65;5.00;;;;;;;2.85;96.00;98567.84;5015582;28;20045;-67
2022/01/07 10:33:22;;;;;;;8.73;3.33;;;;;;;2.85;96.64;98552.25;5016282;28;20022;-67
2022/01/07 10:35:53;;;;;;;9.77;3.95;;;;;;;2.88;96.45;98552.28;5024554;28;20025;-67
2022/01/07 10:38:23;;;;;;;6.30;3.25;;;;;;;2.86;96.33;98548.81;5025427;28;20068;-67
2022/01/07 10:40:50;;;;;;;8.52;3.78;;;;;;;2.73;96.77;98554.75;5019051;28;20036;-66
2022/01/07 10:43:19;;;;;;;16.52;5.00;;;;;;;2.75;96.52;98555.63;5013764;28;20028;-66
2022/01/07 10:45:50;;;;;;;13.93;4.78;;;;;;;2.74;96.64;98542.63;5012540;28;20033;-66
2022/01/07 10:48:19;;;;;;;11.98;4.43;;;;;;;2.72;97.23;98544.34;5005364;28;20101;-66
2022/01/07 10:50:46;;;;;;;9.32;4.70;;;;;;;2.74;97.08;98543.50;5005290;28;20064;-66
2022/01/07 10:53:18;;;;;;;9.18;4.05;;;;;;;2.78;96.61;98534.88;5014616;28;20029;-66
2022/01/07 10:56:10;;;;;;;14.38;5.35;;;;;;;2.86;97.70;98528.03;5024403;28;20033;-66
2022/01/07 10:58:56;;;;;;;15.00;4.97;;;;;;;2.76;97.29;98538.31;5024725;28;20040;-66
2022/01/07 11:01:21;;;;;;;9.38;4.57;;;;;;;2.78;97.00;98532.25;5024635;28;20030;-66
2022/01/07 11:03:47;;;;;;;8.30;4.35;;;;;;;2.70;97.45;98527.84;5024924;28;20317;-66
2022/01/07 11:06:13;;;;;;;7.25;3.90;;;;;;;2.50;98.55;98532.84;5024576;28;20033;-66
2022/01/07 11:08:40;;;;;;;10.05;3.90;;;;;;;2.55;98.67;98533.78;5021909;28;20034;-66
2022/01/07 11:11:08;;;;;;;7.00;3.80;;;;;;;2.67;98.46;98526.09;5023626;28;20076;-66
2022/01/07 11:13:34;;;;;;;10.32;3.55;;;;;;;2.59;98.37;98527.75;5025000;28;20379;-66
2022/01/07 11:16:03;;;;;;;10.98;4.60;;;;;;;2.64;98.34;98518.28;5044218;28;20372;-66
2022/01/07 11:18:29;;;;;;;7.30;3.83;;;;;;;2.53;98.53;98517.28;5020730;28;20026;-66
2022/01/07 11:20:58;;;;;;;10.52;3.85;;;;;;;2.61;99.10;98528.66;5019536;28;20084;-66
2022/01/07 11:23:27;;;;;;;6.57;3.28;;;;;;;2.81;99.70;98524.50;5008525;28;20060;-66
2022/01/07 11:25:59;;;;;;;9.82;3.78;;;;;;;2.74;98.48;98517.50;5016988;28;20097;-66
2022/01/07 11:28:25;;;;;;;14.60;4.40;;;;;;;2.72;98.53;98519.22;5008708;28;20026;-67
2022/01/07 11:30:50;;;;;;;7.93;3.78;;;;;;;2.70;98.79;98515.75;5017713;28;20092;-67
2022/01/07 11:33:18;;;;;;;12.15;4.90;;;;;;;2.73;98.54;98515.78;5015698;28;20053;-67
2022/01/07 11:35:45;;;;;;;9.23;3.22;;;;;;;2.79;98.34;98504.56;5012472;28;20320;-67
2022/01/07 11:38:36;;;;;;;10.75;3.50;;;;;;;2.74;98.39;98501.03;5015478;28;20088;-67